Time;durP1;ratioP1;P1;durP2;ratioP2;P2;SDS_P1;SDS_P2;PMS_P1;PMS_P2;Temp;Humidity;BMP_temperature;BMP_pressure;BME280_temperature;BME280_humidity;BME280_pressure;Samples;Min_cycle;Max_cycle;Signal;HPM_P1;HPM_P2
2021/11/15 00:02:01;;;;;;;10.95;7.10;;;12.90;74.50;;;;;;2577973;53;20941;-71
2021/11/15 00:04:28;;;;;;;11.65;7.70;;;12.80;74.50;;;;;;2561460;53;20960;-72
2021/11/15 00:06:55;;;;;;;12.65;8.40;;;12.80;74.40;;;;;;2590001;53;20934;-72
2021/11/15 00:09:22;;;;;;;13.93;8.57;;;12.80;74.40;;;;;;2562251;53;21056;-72
2021/11/15 00:11:48;;;;;;;12.13;7.30;;;12.80;74.40;;;;;;2344059;54;20937;-72
2021/11/15 00:14:14;;;;;;;9.93;6.70;;;12.80;74.50;;;;;;2324704;54;20989;-72
2021/11/15 00:16:41;;;;;;;11.48;7.18;;;12.80;74.60;;;;;;2324724;54;21796;-72
2021/11/15 00:19:07;;;;;;;12.45;7.75;;;12.80;74.70;;;;;;2324952;54;20985;-71
2021/11/15 00:21:34;;;;;;;11.20;7.55;;;12.80;74.70;;;;;;2338680;54;21049;-72
2021/11/15 00:24:01;;;;;;;11.02;7.35;;;12.80;74.70;;;;;;2563916;53;21000;-72
2021/11/15 00:26:27;;;;;;;13.57;8.45;;;12.80;74.70;;;;;;2326110;54;21060;-72
2021/11/15 00:28:54;;;;;;;11.02;6.82;;;12.80;74.70;;;;;;2329993;54;20923;-71
2021/11/15 00:31:22;;;;;;;11.23;7.07;;;12.80;74.70;;;;;;2590215;53;21382;-72
2021/11/15 00:33:48;;;;;;;11.40;7.10;;;12.90;74.80;;;;;;2590275;53;21005;-72
2021/11/15 00:36:15;;;;;;;11.50;6.45;;;12.90;74.80;;;;;;2575606;53;21123;-72
2021/11/15 00:38:41;;;;;;;12.32;7.12;;;12.90;74.70;;;;;;2577504;53;20938;-72
2021/11/15 00:41:07;;;;;;;10.52;7.05;;;12.90;74.70;;;;;;2336608;54;21486;-72
2021/11/15 00:43:34;;;;;;;10.82;6.85;;;12.90;74.70;;;;;;2576317;53;20898;-72
2021/11/15 00:46:02;;;;;;;10.55;7.00;;;12.90;74.60;;;;;;2332515;54;20941;-72
2021/11/15 00:48:28;;;;;;;11.10;6.05;;;12.90;74.60;;;;;;2581734;53;21355;-72
2021/11/15 00:50:55;;;;;;;9.10;5.55;;;12.90;74.60;;;;;;2587267;53;20949;-72
2021/11/15 00:53:21;;;;;;;9.80;6.70;;;12.90;74.60;;;;;;2324765;54;21559;-72
2021/11/15 00:55:48;;;;;;;10.23;6.97;;;12.90;74.50;;;;;;2558178;53;20925;-72
2021/11/15 00:58:15;;;;;;;11.12;6.93;;;12.90;74.50;;;;;;2577761;53;20889;-71
2021/11/15 01:00:41;;;;;;;11.57;7.68;;;12.90;74.40;;;;;;2589954;53;20978;-71
2021/11/15 01:03:09;;;;;;;11.93;7.80;;;12.90;74.40;;;;;;2344090;54;20925;-71
2021/11/15 01:05:36;;;;;;;12.02;6.97;;;12.90;74.30;;;;;;2590813;53;21035;-71
2021/11/15 01:08:03;;;;;;;9.25;6.37;;;12.80;74.30;;;;;;2590381;53;20902;-72
2021/11/15 01:10:29;;;;;;;11.05;6.43;;;12.90;74.40;;;;;;2325944;54;21807;-71
2021/11/15 01:12:55;;;;;;;11.68;5.97;;;12.80;74.40;;;;;;2329426;54;21880;-72
2021/11/15 01:15:23;;;;;;;9.43;6.53;;;12.80;74.40;;;;;;2324366;54;20972;-72
2021/11/15 01:17:53;;;;;;;10.65;7.10;;;12.80;74.50;;;;;;2344041;54;20925;-72
2021/11/15 01:20:23;;;;;;;9.93;6.65;;;12.80;74.50;;;;;;2590501;53;20910;-72
2021/11/15 01:22:50;;;;;;;9.95;6.50;;;12.90;74.70;;;;;;2564993;53;21695;-72
2021/11/15 01:25:17;;;;;;;9.88;6.62;;;12.90;74.70;;;;;;2584845;53;21351;-72
2021/11/15 01:27:43;;;;;;;9.80;6.35;;;12.90;74.60;;;;;;2323563;54;20961;-71
2021/11/15 01:30:12;;;;;;;9.55;6.70;;;12.90;74.60;;;;;;2568972;53;20981;-72
2021/11/15 01:32:42;;;;;;;11.18;6.90;;;12.80;74.40;;;;;;2324782;54;20969;-72
2021/11/15 01:35:09;;;;;;;11.12;6.50;;;12.90;74.50;;;;;;2568479;53;20945;-72
2021/11/15 01:37:36;;;;;;;12.00;7.40;;;12.90;74.50;;;;;;2344219;54;20976;-72
2021/11/15 01:40:04;;;;;;;9.30;6.22;;;12.80;74.40;;;;;;2589814;53;20969;-72
2021/11/15 01:42:31;;;;;;;9.07;5.68;;;12.80;74.40;;;;;;2563320;53;20992;-72
2021/11/15 01:44:58;;;;;;;8.23;5.32;;;12.80;74.50;;;;;;2332720;54;20973;-72
2021/11/15 01:47:25;;;;;;;9.25;6.10;;;12.80;74.50;;;;;;2558603;53;20965;-72
2021/11/15 01:49:53;;;;;;;8.15;5.45;;;12.80;74.50;;;;;;2574419;53;21316;-72
2021/11/15 01:52:19;;;;;;;8.60;5.65;;;12.90;74.70;;;;;;2577838;53;21480;-71
2021/11/15 01:54:46;;;;;;;8.05;5.00;;;12.80;74.60;;;;;;2343708;54;21652;-72
2021/11/15 01:57:14;;;;;;;8.55;5.32;;;12.80;74.70;;;;;;2563725;53;21023;-72
2021/11/15 01:59:41;;;;;;;9.40;5.35;;;12.90;74.80;;;;;;2571400;53;21564;-72
2021/11/15 02:02:07;;;;;;;8.15;5.30;;;12.90;74.80;;;;;;2322537;54;20992;-72
2021/11/15 02:04:34;;;;;;;9.05;5.25;;;12.90;74.80;;;;;;2590852;53;20944;-72
2021/11/15 02:07:01;;;;;;;9.40;5.82;;;12.90;74.80;;;;;;2328464;54;20981;-72
2021/11/15 02:09:29;;;;;;;8.05;5.53;;;12.90;74.70;;;;;;2586005;53;21076;-72
2021/11/15 02:11:57;;;;;;;10.35;6.00;;;12.90;74.50;;;;;;2590647;53;21021;-72
2021/11/15 02:14:24;;;;;;;8.60;6.05;;;12.90;74.40;;;;;;2563108;53;21092;-72
2021/11/15 02:16:51;;;;;;;8.20;5.57;;;12.90;74.40;;;;;;2343433;54;21013;-72
2021/11/15 02:19:17;;;;;;;9.02;5.53;;;12.90;74.50;;;;;;2590681;53;21461;-72
2021/11/15 02:21:44;;;;;;;8.70;5.57;;;12.90;74.50;;;;;;2343951;54;21811;-72
2021/11/15 02:24:10;;;;;;;7.78;4.70;;;12.90;74.50;;;;;;2590347;53;21501;-72
2021/11/15 02:26:38;;;;;;;8.52;5.70;;;12.90;74.60;;;;;;2561554;53;20924;-72
2021/11/15 02:29:06;;;;;;;8.57;5.35;;;12.90;74.60;;;;;;2327789;53;21026;-72
2021/11/15 02:31:33;;;;;;;7.22;4.80;;;12.90;74.60;;;;;;2344679;54;21014;-72
2021/11/15 02:33:59;;;;;;;8.25;5.50;;;12.90;74.60;;;;;;2564154;53;20957;-72
2021/11/15 02:36:27;;;;;;;9.07;5.95;;;12.90;74.60;;;;;;2346092;54;21434;-72
2021/11/15 02:38:55;;;;;;;8.00;5.50;;;12.90;74.60;;;;;;2321332;54;21009;-72
2021/11/15 02:41:22;;;;;;;11.10;5.87;;;12.90;74.50;;;;;;2344077;54;20909;-72
2021/11/15 02:43:48;;;;;;;9.63;5.43;;;12.90;74.40;;;;;;2324426;55;21005;-72
2021/11/15 02:46:15;;;;;;;8.32;5.68;;;12.90;74.20;;;;;;2343844;54;20972;-73
2021/11/15 02:48:42;;;;;;;8.07;5.22;;;12.90;74.20;;;;;;2584391;53;20945;-71
2021/11/15 02:51:09;;;;;;;8.77;5.37;;;12.90;74.10;;;;;;2323253;54;20949;-72
2021/11/15 02:53:36;;;;;;;10.35;6.25;;;12.80;73.90;;;;;;2590638;53;20960;-72
2021/11/15 02:56:04;;;;;;;9.00;5.62;;;12.80;73.90;;;;;;2342794;54;20930;-72
2021/11/15 02:58:31;;;;;;;8.25;5.35;;;12.80;73.80;;;;;;2343526;54;20988;-72
2021/11/15 03:01:39;;;;;;;9.95;6.03;;;12.80;73.80;;;;;;2346774;54;20993;-72
2021/11/15 03:04:06;;;;;;;10.73;6.20;;;12.80;73.70;;;;;;2325522;54;21053;-72
2021/11/15 03:06:33;;;;;;;7.35;4.87;;;12.70;73.80;;;;;;2571347;53;20937;-72
2021/11/15 03:09:00;;;;;;;8.60;5.07;;;12.70;73.80;;;;;;2590176;53;21009;-72
2021/11/15 03:11:30;;;;;;;9.95;5.97;;;12.70;73.90;;;;;;2589976;53;20914;-72
2021/11/15 03:13:57;;;;;;;8.63;5.30;;;12.70;73.90;;;;;;2589768;53;20946;-72
2021/11/15 03:16:24;;;;;;;8.40;5.32;;;12.70;74.00;;;;;;2342774;54;20997;-72
2021/11/15 03:18:51;;;;;;;8.50;5.40;;;12.70;74.10;;;;;;2324320;55;20961;-71
2021/11/15 03:21:22;;;;;;;9.98;5.20;;;12.70;74.20;;;;;;2343823;54;20982;-73
2021/11/15 03:23:53;;;;;;;10.52;5.62;;;12.70;74.20;;;;;;2557592;53;21017;-72
2021/11/15 03:26:20;;;;;;;9.00;5.70;;;12.70;74.20;;;;;;2318069;54;21913;-72
2021/11/15 03:28:58;;;;;;;9.82;5.72;;;12.70;74.20;;;;;;2574608;53;21154;-72
2021/11/15 03:31:29;;;;;;;9.13;5.43;;;12.70;73.90;;;;;;2317281;55;21073;-72
2021/11/15 03:34:01;;;;;;;10.13;5.32;;;12.70;74.20;;;;;;2556842;53;21009;-72
2021/11/15 03:36:28;;;;;;;8.05;5.03;;;12.70;74.20;;;;;;2324411;55;21678;-72
2021/11/15 03:38:54;;;;;;;7.15;4.70;;;12.70;74.30;;;;;;2323656;54;21056;-72
2021/11/15 03:41:22;;;;;;;9.13;5.12;;;12.70;74.30;;;;;;2337473;54;20980;-72
2021/11/15 03:43:49;;;;;;;6.30;3.70;;;12.70;75.10;;;;;;2587828;53;20957;-71
2021/11/15 03:46:16;;;;;;;8.70;4.93;;;12.70;74.40;;;;;;2589612;53;20933;-72
2021/11/15 03:48:42;;;;;;;9.18;5.47;;;12.80;74.50;;;;;;2343134;54;20965;-72
2021/11/15 03:51:10;;;;;;;8.73;5.30;;;12.70;74.40;;;;;;2324360;54;20945;-70
2021/11/15 03:53:37;;;;;;;8.30;4.70;;;12.70;74.20;;;;;;2589524;53;20946;-72
2021/11/15 03:56:07;;;;;;;8.13;5.12;;;12.70;74.10;;;;;;2334677;54;21005;-72
2021/11/15 03:58:34;;;;;;;9.35;5.00;;;12.70;74.20;;;;;;2557886;53;21828;-72
2021/11/15 04:01:02;;;;;;;12.25;5.47;;;12.70;74.10;;;;;;2326996;54;20980;-72
2021/11/15 04:03:33;;;;;;;10.45;6.05;;;12.70;74.10;;;;;;2575934;53;21663;-73
2021/11/15 04:06:25;;;;;;;8.45;5.35;;;12.70;74.20;;;;;;2576978;53;20985;-71
2021/11/15 04:09:04;;;;;;;8.52;5.25;;;12.70;73.90;;;;;;2589828;53;21060;-71
2021/11/15 04:11:31;;;;;;;8.55;4.97;;;12.60;74.60;;;;;;2344024;54;20990;-72
2021/11/15 04:14:01;;;;;;;9.90;6.15;;;12.70;74.10;;;;;;2564301;53;21690;-72
2021/11/15 04:16:29;;;;;;;10.55;4.87;;;12.60;74.00;;;;;;2347009;54;20993;-72
2021/11/15 04:19:01;;;;;;;8.65;4.87;;;12.60;74.00;;;;;;2561881;53;21706;-72
2021/11/15 04:21:28;;;;;;;8.85;4.93;;;12.60;73.90;;;;;;2591181;53;21397;-72
2021/11/15 04:23:57;;;;;;;8.32;4.85;;;12.60;74.00;;;;;;2590643;53;20968;-72
2021/11/15 04:26:24;;;;;;;8.68;4.62;;;12.60;74.00;;;;;;2325357;54;20925;-72
2021/11/15 04:28:51;;;;;;;9.18;5.68;;;12.60;74.00;;;;;;2586180;53;21030;-72
2021/11/15 04:31:17;;;;;;;10.85;5.22;;;12.60;74.00;;;;;;2559607;53;21909;-72
2021/11/15 04:33:43;;;;;;;8.93;4.85;;;12.60;74.00;;;;;;2329626;54;21124;-72
2021/11/15 04:36:10;;;;;;;9.35;4.68;;;12.60;74.00;;;;;;2328826;53;20957;-71
2021/11/15 04:38:37;;;;;;;7.53;4.37;;;12.60;73.90;;;;;;2321612;54;20971;-72
2021/11/15 04:41:04;;;;;;;7.70;4.95;;;12.60;73.90;;;;;;2342970;54;20937;-71
2021/11/15 04:43:30;;;;;;;8.68;4.28;;;12.60;73.90;;;;;;2343314;54;20945;-72
2021/11/15 04:45:57;;;;;;;7.65;4.32;;;12.60;73.80;;;;;;2343571;54;20933;-72
2021/11/15 04:48:25;;;;;;;8.02;4.82;;;12.60;73.80;;;;;;2344131;54;21229;-72
2021/11/15 04:50:52;;;;;;;7.45;4.37;;;12.60;73.70;;;;;;2558582;53;20941;-72
2021/11/15 04:53:19;;;;;;;9.25;5.60;;;12.60;73.70;;;;;;2324431;54;21045;-72
2021/11/15 04:55:45;;;;;;;8.05;5.03;;;12.60;73.70;;;;;;2328431;54;21000;-72
2021/11/15 04:58:12;;;;;;;11.07;5.72;;;12.50;73.60;;;;;;2331734;54;21012;-73
2021/11/15 05:00:38;;;;;;;9.02;4.78;;;12.50;73.60;;;;;;2319787;54;21036;-72
2021/11/15 05:03:05;;;;;;;8.40;4.68;;;12.50;73.60;;;;;;2343792;54;20961;-72
2021/11/15 05:05:31;;;;;;;8.32;4.65;;;12.60;73.70;;;;;;2339264;54;21044;-72
2021/11/15 05:07:57;;;;;;;8.73;4.22;;;12.60;73.70;;;;;;2332675;54;20965;-72
2021/11/15 05:10:26;;;;;;;9.15;4.57;;;12.50;73.60;;;;;;2326167;54;20964;-72
2021/11/15 05:12:54;;;;;;;8.63;4.57;;;12.50;73.60;;;;;;2336397;54;20969;-72
2021/11/15 05:15:21;;;;;;;9.25;5.22;;;12.40;73.50;;;;;;2343718;54;20932;-71
2021/11/15 05:17:47;;;;;;;7.65;4.10;;;12.40;73.50;;;;;;2333956;54;20937;-72
2021/11/15 05:20:14;;;;;;;8.50;4.68;;;12.40;73.60;;;;;;2333887;54;20893;-72
2021/11/15 05:22:40;;;;;;;6.53;3.78;;;12.40;73.60;;;;;;2341768;54;20928;-72
2021/11/15 05:25:07;;;;;;;7.97;4.72;;;12.40;73.70;;;;;;2328598;54;21044;-72
2021/11/15 05:27:34;;;;;;;7.47;4.22;;;12.40;73.80;;;;;;2306397;55;20953;-72
2021/11/15 05:30:00;;;;;;;9.50;4.40;;;12.40;73.80;;;;;;2325440;54;20961;-71
2021/11/15 05:32:26;;;;;;;8.43;4.53;;;12.40;73.80;;;;;;2590337;53;21021;-72
2021/11/15 05:34:57;;;;;;;7.97;4.40;;;12.40;73.80;;;;;;2344014;54;20965;-72
2021/11/15 05:37:23;;;;;;;7.90;4.53;;;12.40;73.80;;;;;;2319160;54;20952;-72
2021/11/15 05:39:49;;;;;;;7.97;4.28;;;12.40;73.80;;;;;;2330224;54;21039;-72
2021/11/15 05:42:16;;;;;;;7.82;4.30;;;12.40;73.80;;;;;;2578856;53;20965;-72
2021/11/15 05:44:44;;;;;;;7.37;4.32;;;12.40;73.70;;;;;;2342496;54;20909;-72
2021/11/15 05:47:11;;;;;;;8.77;4.53;;;12.40;73.70;;;;;;2338944;54;20973;-71
2021/11/15 05:49:37;;;;;;;8.38;4.60;;;12.40;73.60;;;;;;2317958;54;20953;-72
2021/11/15 05:52:05;;;;;;;8.65;4.90;;;12.30;73.40;;;;;;2342316;54;20913;-71
2021/11/15 05:54:31;;;;;;;8.20;4.68;;;12.30;73.30;;;;;;2344086;54;20981;-72
2021/11/15 05:56:58;;;;;;;8.27;4.12;;;12.30;73.30;;;;;;2319727;54;20909;-72
2021/11/15 05:59:27;;;;;;;6.70;4.05;;;12.30;73.30;;;;;;2560701;53;21084;-72
2021/11/15 06:01:54;;;;;;;9.07;4.35;;;12.40;73.60;;;;;;2343213;54;20929;-71
2021/11/15 06:04:20;;;;;;;6.53;4.05;;;12.30;73.60;;;;;;2332489;54;21045;-73
2021/11/15 06:06:49;;;;;;;8.52;4.50;;;12.30;73.70;;;;;;2327268;54;20924;-72
2021/11/15 06:09:17;;;;;;;7.28;4.10;;;12.30;73.80;;;;;;2343829;54;20940;-72
2021/11/15 06:11:46;;;;;;;7.57;4.28;;;12.30;73.90;;;;;;2344852;54;20961;-72
2021/11/15 06:14:12;;;;;;;8.27;4.25;;;12.30;74.00;;;;;;2324694;55;20969;-71
2021/11/15 06:16:39;;;;;;;8.68;4.50;;;12.30;74.00;;;;;;2344359;54;20953;-72
2021/11/15 06:19:05;;;;;;;9.73;5.37;;;12.30;74.00;;;;;;2590652;53;21763;-72
2021/11/15 06:21:34;;;;;;;7.15;4.05;;;12.30;74.00;;;;;;2343942;54;21786;-72
2021/11/15 06:24:01;;;;;;;7.10;4.28;;;12.30;74.00;;;;;;2590576;53;20901;-72
2021/11/15 06:26:29;;;;;;;8.52;4.75;;;12.30;74.00;;;;;;2338361;54;20929;-72
2021/11/15 06:28:55;;;;;;;8.68;5.25;;;12.30;74.00;;;;;;2557507;53;20981;-71
2021/11/15 06:31:21;;;;;;;9.43;5.53;;;12.30;73.90;;;;;;2334510;54;20913;-71
2021/11/15 06:33:52;;;;;;;8.18;4.75;;;12.30;73.80;;;;;;2344318;54;21871;-72
2021/11/15 06:36:22;;;;;;;7.80;4.68;;;12.40;73.80;;;;;;2590312;53;21459;-72
2021/11/15 06:38:53;;;;;;;9.95;4.68;;;12.30;73.70;;;;;;2325708;54;21744;-72
2021/11/15 06:41:23;;;;;;;7.50;4.32;;;12.30;73.70;;;;;;2335287;54;20957;-72
2021/11/15 06:43:52;;;;;;;6.87;4.18;;;12.30;73.60;;;;;;2323991;54;20968;-71
2021/11/15 06:46:19;;;;;;;6.60;3.62;;;12.30;73.40;;;;;;2330012;54;20976;-72
2021/11/15 06:48:45;;;;;;;7.00;4.05;;;12.30;73.50;;;;;;2319853;54;21053;-72
2021/11/15 06:51:30;;;;;;;7.18;3.55;;;12.30;73.60;;;;;;2344377;54;20989;-71
2021/11/15 06:53:56;;;;;;;6.43;3.87;;;12.30;74.30;;;;;;2335335;54;21016;-72
2021/11/15 06:56:23;;;;;;;7.75;3.85;;;12.30;73.60;;;;;;2331709;54;21000;-72
2021/11/15 06:58:49;;;;;;;7.95;4.10;;;12.30;73.70;;;;;;2325728;54;20952;-71
2021/11/15 07:01:15;;;;;;;7.10;3.72;;;12.20;73.60;;;;;;2337544;54;20968;-72
2021/11/15 07:03:43;;;;;;;5.78;3.30;;;12.30;73.80;;;;;;2331586;54;20962;-71
2021/11/15 07:06:09;;;;;;;6.85;4.07;;;12.20;73.80;;;;;;2325118;54;20974;-72
2021/11/15 07:08:36;;;;;;;8.48;4.12;;;12.20;73.80;;;;;;2343744;54;21008;-71
2021/11/15 07:11:02;;;;;;;8.00;4.60;;;12.20;73.80;;;;;;2342947;54;20940;-71
2021/11/15 07:13:31;;;;;;;7.35;4.25;;;12.30;73.70;;;;;;2344417;54;21032;-72
2021/11/15 07:15:58;;;;;;;8.25;4.45;;;12.20;73.60;;;;;;2337372;54;21486;-72
2021/11/15 07:18:27;;;;;;;7.68;4.37;;;12.20;73.40;;;;;;2327049;54;21012;-71
2021/11/15 07:21:05;;;;;;;6.85;3.70;;;12.20;73.50;;;;;;2344442;54;20957;-72
2021/11/15 07:23:31;;;;;;;7.03;3.62;;;12.20;73.30;;;;;;2563074;53;21301;-71
2021/11/15 07:25:57;;;;;;;7.03;4.35;;;12.20;73.60;;;;;;2325966;54;20949;-71
2021/11/15 07:28:24;;;;;;;7.80;4.00;;;12.20;73.70;;;;;;2344197;54;20996;-72
2021/11/15 07:30:54;;;;;;;8.27;4.60;;;12.20;73.70;;;;;;2326142;54;20988;-72
2021/11/15 07:33:25;;;;;;;7.65;4.12;;;12.20;73.60;;;;;;2324557;55;20945;-72
2021/11/15 07:35:52;;;;;;;7.35;4.18;;;12.20;73.50;;;;;;2323898;55;21049;-71
2021/11/15 07:38:18;;;;;;;8.40;4.60;;;12.20;73.30;;;;;;2344117;54;21012;-72
2021/11/15 07:40:45;;;;;;;7.93;4.00;;;12.20;73.30;;;;;;2338878;54;21045;-72
2021/11/15 07:43:11;;;;;;;7.93;4.37;;;12.30;73.30;;;;;;2327510;54;20917;-72
2021/11/15 07:45:38;;;;;;;9.90;5.50;;;12.20;73.20;;;;;;2327307;53;20966;-72
2021/11/15 07:48:04;;;;;;;8.23;4.40;;;12.10;73.00;;;;;;2567346;53;21025;-72
2021/11/15 07:50:31;;;;;;;8.90;5.00;;;12.10;73.00;;;;;;2344448;54;21816;-72
2021/11/15 07:52:57;;;;;;;8.50;4.22;;;12.10;73.10;;;;;;2331646;54;20917;-72
2021/11/15 07:55:25;;;;;;;9.98;5.15;;;12.10;73.30;;;;;;2333312;54;20973;-72
2021/11/15 07:57:51;;;;;;;10.13;5.30;;;12.20;73.50;;;;;;2326027;54;21009;-72
2021/11/15 08:00:21;;;;;;;11.07;5.95;;;12.10;73.50;;;;;;2329128;54;21028;-72
2021/11/15 08:02:47;;;;;;;9.05;4.93;;;12.10;73.50;;;;;;2319593;54;20937;-73
2021/11/15 08:05:17;;;;;;;10.65;5.15;;;12.10;73.60;;;;;;2339978;54;20930;-72
2021/11/15 08:07:45;;;;;;;7.25;3.95;;;12.10;73.60;;;;;;2321694;54;21379;-72
2021/11/15 08:10:12;;;;;;;8.18;4.47;;;12.10;73.80;;;;;;2583045;53;20937;-72
2021/11/15 08:12:40;;;;;;;7.78;4.72;;;12.10;73.80;;;;;;2581701;53;20961;-72
2021/11/15 08:15:08;;;;;;;7.70;4.40;;;12.10;73.80;;;;;;2317630;54;20956;-72
2021/11/15 08:17:38;;;;;;;9.15;4.60;;;12.10;73.90;;;;;;2316563;54;20950;-72
2021/11/15 08:20:05;;;;;;;9.38;5.18;;;12.10;73.80;;;;;;2314265;54;20941;-72
2021/11/15 08:22:32;;;;;;;9.30;4.78;;;12.10;73.90;;;;;;2569996;53;20992;-71
2021/11/15 08:27:01;;;;;;;8.95;4.95;;;12.10;74.00;;;;;;2583628;53;21044;-72
2021/11/15 08:29:32;;;;;;;8.25;4.20;;;12.20;73.50;;;;;;2314262;54;20937;-72
2021/11/15 08:32:05;;;;;;;9.10;5.37;;;12.20;73.90;;;;;;2336216;54;21466;-72
2021/11/15 08:34:31;;;;;;;9.23;5.35;;;12.20;74.00;;;;;;2557079;53;21057;-72
2021/11/15 08:36:58;;;;;;;9.25;4.85;;;12.20;74.00;;;;;;2584351;53;20925;-72
2021/11/15 08:39:25;;;;;;;10.77;6.12;;;12.30;74.20;;;;;;2339233;54;20929;-72
2021/11/15 08:41:55;;;;;;;9.57;4.95;;;12.20;74.10;;;;;;2581320;53;20917;-72
2021/11/15 08:44:21;;;;;;;9.73;6.00;;;12.20;74.00;;;;;;2324836;54;20996;-72
2021/11/15 08:46:50;;;;;;;10.23;5.93;;;12.20;74.00;;;;;;2323997;54;20989;-72
2021/11/15 08:49:17;;;;;;;10.05;5.65;;;12.20;73.80;;;;;;2343976;54;20929;-72
2021/11/15 08:51:44;;;;;;;9.52;5.32;;;12.20;73.70;;;;;;2324954;54;21270;-71
2021/11/15 08:54:14;;;;;;;12.25;6.20;;;12.20;73.60;;;;;;2336170;54;20996;-71
2021/11/15 08:56:41;;;;;;;10.45;5.90;;;12.20;73.70;;;;;;2336577;54;20969;-72
2021/11/15 08:59:21;;;;;;;10.98;5.93;;;12.30;73.90;;;;;;2343953;54;20953;-72
2021/11/15 09:01:48;;;;;;;9.07;5.30;;;12.30;74.00;;;;;;2332723;54;20929;-72
2021/11/15 09:04:14;;;;;;;9.63;4.85;;;12.30;74.10;;;;;;2564672;53;21024;-72
2021/11/15 09:06:41;;;;;;;11.25;5.53;;;12.40;74.40;;;;;;2344355;54;21786;-72
2021/11/15 09:09:14;;;;;;;9.63;5.35;;;12.30;74.30;;;;;;2330294;54;20985;-72
2021/11/15 09:11:49;;;;;;;;;;;12.30;74.20;;;;;;2344285;54;20937;-72
2021/11/15 09:14:17;;;;;;;9.00;4.22;;;12.40;73.10;;;;;;2589632;53;20157;-72
2021/11/15 09:16:45;;;;;;;8.32;4.10;;;12.50;74.20;;;;;;2590718;53;21035;-72
2021/11/15 09:19:11;;;;;;;12.35;6.10;;;12.40;74.10;;;;;;2568670;53;20952;-72
2021/11/15 09:21:40;;;;;;;12.13;6.20;;;12.40;73.90;;;;;;2338872;54;21009;-72
2021/11/15 09:24:06;;;;;;;10.10;5.37;;;12.40;73.90;;;;;;2579062;53;21533;-72
2021/11/15 09:26:32;;;;;;;10.60;5.50;;;12.40;74.00;;;;;;2331669;54;21379;-71
2021/11/15 09:28:59;;;;;;;9.73;5.35;;;12.40;74.10;;;;;;2590419;53;20917;-71
2021/11/15 09:31:26;;;;;;;11.38;6.28;;;12.40;74.10;;;;;;2324314;54;21098;-71
2021/11/15 09:33:53;;;;;;;11.25;6.28;;;12.40;73.90;;;;;;2590776;53;20932;-72
2021/11/15 09:36:23;;;;;;;12.07;6.35;;;12.40;73.80;;;;;;2354886;53;2345164;-73
2021/11/15 09:38:54;;;;;;;11.52;6.35;;;12.40;73.80;;;;;;2325713;54;21782;-72
2021/11/15 09:41:20;;;;;;;11.90;6.55;;;12.40;73.60;;;;;;2328755;54;21045;-72
2021/11/15 09:43:46;;;;;;;11.95;6.28;;;12.40;73.70;;;;;;2343780;54;21029;-72
2021/11/15 09:46:15;;;;;;;10.48;5.85;;;12.40;73.60;;;;;;2336069;54;20944;-72
2021/11/15 09:48:44;;;;;;;11.43;6.15;;;12.40;73.70;;;;;;2578232;53;20993;-72
2021/11/15 09:51:11;;;;;;;10.57;5.62;;;12.40;73.60;;;;;;2323544;55;20932;-71
2021/11/15 09:53:39;;;;;;;10.95;6.30;;;12.40;73.80;;;;;;2533325;53;20941;-71
2021/11/15 09:56:07;;;;;;;12.37;6.22;;;12.40;73.80;;;;;;2343678;54;20996;-72
2021/11/15 09:58:34;;;;;;;9.88;4.95;;;12.40;73.90;;;;;;2591150;53;21652;-71
2021/11/15 10:01:00;;;;;;;9.40;5.43;;;12.40;74.70;;;;;;2344352;54;21495;-72
2021/11/15 10:03:27;;;;;;;13.95;6.28;;;12.40;74.10;;;;;;2591158;53;20997;-70
2021/11/15 10:05:54;;;;;;;10.50;5.50;;;12.40;74.10;;;;;;2591001;53;21521;-71
2021/11/15 10:08:22;;;;;;;10.32;6.55;;;12.50;74.10;;;;;;2562261;53;20909;-72
2021/11/15 10:10:55;;;;;;;10.68;6.30;;;12.50;73.90;;;;;;2344124;54;20945;-72
2021/11/15 10:13:24;;;;;;;9.80;5.70;;;12.50;73.80;;;;;;2590591;53;20901;-71
2021/11/15 10:16:16;;;;;;;10.30;5.97;;;12.50;73.70;;;;;;2590879;53;20966;-71
2021/11/15 10:18:45;;;;;;;;;;;12.50;73.30;;;;;;2351914;54;21056;-71
2021/11/15 10:21:27;;;;;;;10.43;5.55;;;12.50;72.90;;;;;;2343953;54;20683;-71
2021/11/15 10:25:22;;;;;;;9.95;5.50;;;12.50;73.70;;;;;;2590729;53;20933;-72
2021/11/15 10:28:07;;;;;;;10.40;4.72;;;12.40;73.40;;;;;;2331653;54;21485;-71
2021/11/15 10:30:37;;;;;;;9.52;5.15;;;12.50;73.50;;;;;;2320128;54;21041;-72
2021/11/15 10:33:08;;;;;;;11.82;6.45;;;12.50;74.00;;;;;;2320482;54;20964;-72
2021/11/15 10:35:41;;;;;;;10.45;5.70;;;12.60;74.10;;;;;;2588733;53;20984;-72
2021/11/15 10:38:08;;;;;;;9.52;5.62;;;12.60;74.10;;;;;;2585288;53;20981;-72
2021/11/15 10:40:37;;;;;;;10.43;5.95;;;12.60;74.30;;;;;;2338944;54;20885;-72
2021/11/15 10:43:07;;;;;;;9.93;5.85;;;12.60;74.30;;;;;;2339451;54;21771;-72
2021/11/15 10:45:35;;;;;;;9.68;5.70;;;12.60;74.00;;;;;;2556880;53;21784;-72
2021/11/15 10:48:03;;;;;;;10.60;6.00;;;12.60;74.10;;;;;;2314732;54;21010;-71
2021/11/15 10:50:54;;;;;;;10.18;5.60;;;12.70;74.20;;;;;;2324283;54;21065;-71
2021/11/15 10:53:27;;;;;;;8.75;4.62;;;12.80;73.70;;;;;;2573029;53;20996;-71
2021/11/15 10:56:36;;;;;;;11.30;5.75;;;12.70;74.10;;;;;;2550380;53;20984;-72
2021/11/15 10:59:12;;;;;;;9.38;4.80;;;12.70;73.50;;;;;;2330030;54;21020;-72
2021/11/15 11:01:40;;;;;;;9.38;5.30;;;12.70;73.50;;;;;;2330404;54;21343;-72
2021/11/15 11:04:11;;;;;;;9.30;5.15;;;12.70;74.00;;;;;;2328963;54;20953;-72
2021/11/15 11:06:57;;;;;;;10.43;4.87;;;12.80;73.90;;;;;;2572125;53;22237;-70
2021/11/15 11:10:23;;;;;;;8.02;4.85;;;12.80;73.20;;;;;;2585004;53;20950;-71
2021/11/15 11:13:01;;;;;;;8.80;5.40;;;12.80;72.80;;;;;;2574759;53;21767;-72
2021/11/15 11:15:46;;;;;;;10.48;6.07;;;12.80;74.20;;;;;;2336731;54;21001;-72
2021/11/15 11:18:50;;;;;;;10.15;6.18;;;12.80;73.20;;;;;;2321179;54;20965;-72
2021/11/15 11:21:45;;;;;;;10.65;5.78;;;12.80;73.20;;;;;;2532724;54;20930;-71
2021/11/15 11:24:21;;;;;;;10.90;5.85;;;12.80;72.90;;;;;;2337192;54;21882;-71
2021/11/15 11:26:56;;;;;;;10.57;6.07;;;12.70;73.20;;;;;;2583040;53;20965;-72
2021/11/15 11:29:28;;;;;;;10.65;5.97;;;12.70;73.30;;;;;;2338683;54;20985;-71
2021/11/15 11:31:57;;;;;;;10.18;5.85;;;12.70;73.20;;;;;;2337123;54;20950;-72
2021/11/15 11:34:23;;;;;;;10.18;6.32;;;12.70;73.40;;;;;;2334650;54;21487;-72
2021/11/15 11:36:50;;;;;;;10.27;5.70;;;12.70;73.50;;;;;;2334447;54;20945;-71
2021/11/15 11:39:17;;;;;;;10.70;6.15;;;12.70;73.60;;;;;;2546618;53;20977;-72
2021/11/15 11:41:44;;;;;;;11.32;6.40;;;12.70;73.70;;;;;;2550920;53;21021;-72
2021/11/15 11:44:12;;;;;;;10.95;6.37;;;12.70;73.80;;;;;;2327257;54;21029;-71
2021/11/15 11:46:39;;;;;;;10.43;6.20;;;12.70;73.80;;;;;;2321693;54;20913;-71
2021/11/15 11:49:10;;;;;;;10.23;5.80;;;12.70;73.50;;;;;;2319256;54;20913;-72
2021/11/15 11:51:38;;;;;;;9.98;5.55;;;12.70;73.60;;;;;;2318942;54;20957;-71
2021/11/15 11:54:09;;;;;;;10.77;6.12;;;12.70;73.50;;;;;;2319599;54;21084;-71
2021/11/15 11:56:35;;;;;;;10.98;5.65;;;12.70;73.40;;;;;;2558321;53;20989;-72
2021/11/15 11:59:38;;;;;;;8.85;5.75;;;12.70;73.30;;;;;;2315635;54;20952;-71
2021/11/15 12:02:08;;;;;;;11.90;6.05;;;12.70;72.40;;;;;;2324544;54;21426;-71
2021/11/15 12:08:09;;;;;;;10.77;5.87;;;12.70;73.40;;;;;;2575098;53;20985;-72
2021/11/15 12:10:57;;;;;;;8.05;4.45;;;12.80;72.40;;;;;;2342173;54;20984;-72
2021/11/15 12:13:24;;;;;;;9.18;4.90;;;12.70;73.20;;;;;;2345117;54;20941;-72
2021/11/15 12:16:01;;;;;;;11.25;5.95;;;12.70;73.20;;;;;;2333086;54;21008;-72
2021/11/15 12:18:32;;;;;;;8.90;4.78;;;12.70;72.90;;;;;;2575716;53;21069;-72
2021/11/15 12:21:08;;;;;;;9.38;5.30;;;12.70;73.40;;;;;;2341398;54;20988;-72
2021/11/15 12:23:38;;;;;;;8.65;5.15;;;12.70;73.20;;;;;;2560472;53;20973;-72
2021/11/15 12:26:17;;;;;;;7.75;4.45;;;12.70;73.60;;;;;;2563019;53;21001;-71
2021/11/15 12:28:45;;;;;;;9.25;5.15;;;12.70;73.50;;;;;;2575722;53;21791;-72
2021/11/15 12:31:12;;;;;;;9.82;5.72;;;12.70;73.80;;;;;;2556520;53;21353;-71
2021/11/15 12:33:39;;;;;;;9.70;5.43;;;12.80;73.90;;;;;;2339378;54;20992;-71
2021/11/15 12:36:10;;;;;;;10.88;5.65;;;12.80;73.80;;;;;;2324760;54;21498;-72
2021/11/15 12:38:59;;;;;;;10.05;6.10;;;12.80;73.50;;;;;;2335216;54;20945;-71
2021/11/15 12:41:35;;;;;;;9.18;4.97;;;12.80;72.80;;;;;;2313216;55;21024;-71
2021/11/15 12:45:13;;;;;;;10.60;5.10;;;12.80;73.10;;;;;;2328295;54;20928;-71
2021/11/15 12:47:40;;;;;;;9.10;4.57;;;12.80;73.20;;;;;;2584772;53;20993;-72
2021/11/15 12:50:12;;;;;;;9.63;5.05;;;12.80;73.50;;;;;;2336181;54;20972;-72
2021/11/15 12:52:38;;;;;;;11.85;5.15;;;12.80;73.30;;;;;;2316050;54;21616;-71
2021/11/15 12:55:12;;;;;;;10.38;5.53;;;12.80;73.30;;;;;;2337000;54;21692;-72
2021/11/15 12:57:46;;;;;;;9.98;5.18;;;12.80;72.80;;;;;;2338472;54;20973;-71
2021/11/15 13:00:56;;;;;;;10.45;5.43;;;12.80;72.80;;;;;;2338932;54;20941;-71
2021/11/15 13:03:22;;;;;;;10.63;5.68;;;12.80;71.90;;;;;;2337887;54;21560;-71